CNC4 weather

Guelph Airport
Guelph, Ontario, Canada

Public forecast

Using degrees Celsius for public forecast. Weather courtesy of forecast.io.

Closest aviation weather report (METAR) to Guelph Airport

Closest report is Waterloo Airport, 10.1 nm (18.7 km) SW. Retrieved 2019/11/20 18:01 UTC (27 minutes ago):

CYKF 201801Z AUTO 33008KT 280V350 9SM SCT017 BKN050 06/02 A3011 RMK SLP207

Closest aviation forecast (TAF) to Guelph Airport

Closest forecast is Waterloo Airport, 10.1 nm (18.7 km) SW. Retrieved 2019/11/20 20:42 UTC (0 seconds ago):

TAF CYKF 201938Z 2020/2108 30006KT P6SM FEW020 BKN050 BECMG 2020/2022 26005KT FM210100 VRB03KT P6SM OVC020 TEMPO 2101/2103 SCT020 FM210300 VRB03KT P6SM FEW006 SCT020 TEMPO 2103/2108 2SM BR BKN006 PROB30 2103/2108 1/2SM FG VV002 RMK FCST BASED ON AUTO OBS NXT FCST BY 210200Z